createdAt,value
2019-03-17T05:02:16.866Z,7
2019-03-17T05:05:44.719Z,12
2019-03-17T05:09:12.595Z,21
2019-03-17T05:12:49.162Z,32
2019-03-17T05:16:17.011Z,52
2019-03-17T05:19:44.885Z,51
2019-03-17T05:23:12.794Z,44
2019-03-17T05:26:40.644Z,64
2019-03-17T05:30:08.513Z,114
2019-03-17T05:33:36.378Z,146
2019-03-17T05:37:07.277Z,205
2019-03-17T05:40:35.111Z,262
2019-03-17T05:44:02.993Z,348
2019-03-17T05:47:30.856Z,595
2019-03-17T05:50:58.715Z,642
2019-03-17T05:54:26.589Z,659
2019-03-17T05:57:54.490Z,774
2019-03-17T06:01:22.345Z,989
2019-03-17T06:04:50.225Z,1073
2019-03-17T06:08:18.112Z,1160
2019-03-17T06:11:46.008Z,1435
2019-03-17T06:15:13.903Z,1440
2019-03-17T06:18:41.865Z,1462
2019-03-17T06:22:10.699Z,1492
2019-03-17T06:25:39.599Z,1256
2019-03-17T06:29:07.455Z,1324
2019-03-17T06:32:35.313Z,1300
2019-03-17T06:36:03.182Z,1297
2019-03-17T06:39:31.094Z,1430
2019-03-17T06:42:59.511Z,1698
2019-03-17T06:46:27.379Z,2268
2019-03-17T06:49:55.441Z,2989
2019-03-17T06:53:23.861Z,3786
2019-03-17T06:56:51.736Z,3319
2019-03-17T07:00:21.524Z,2680
2019-03-17T07:03:49.399Z,2812
2019-03-17T07:07:17.254Z,2705
2019-03-17T07:10:45.136Z,2863
2019-03-17T07:14:13.027Z,2742
2019-03-17T07:17:40.998Z,2862
2019-03-17T07:21:08.778Z,2947
2019-03-17T07:24:37.324Z,3022
2019-03-17T07:28:05.174Z,2853
2019-03-17T07:31:34.190Z,2949
2019-03-17T07:35:03.073Z,3365
2019-03-17T07:38:30.962Z,3433
2019-03-17T07:41:58.823Z,4282
2019-03-17T07:45:26.762Z,3805
2019-03-17T07:48:54.694Z,4033
2019-03-17T07:52:22.869Z,5519
2019-03-17T07:55:50.753Z,5617
2019-03-17T07:59:18.642Z,4361
2019-03-17T08:02:46.526Z,3668
2019-03-17T08:06:15.264Z,3667
2019-03-17T08:09:43.135Z,2572
2019-03-17T08:13:11.990Z,5011
2019-03-17T08:16:40.426Z,4570
2019-03-17T08:20:08.481Z,3093
2019-03-17T08:23:43.307Z,4364
2019-03-17T08:27:18.446Z,7985
2019-03-17T08:30:54.969Z,7005
2019-03-17T08:34:22.854Z,4588
2019-03-17T08:37:50.830Z,7562
2019-03-17T08:41:18.643Z,6259
2019-03-17T08:44:46.512Z,4335
2019-03-17T08:48:14.388Z,3473
2019-03-17T08:51:42.251Z,7251
2019-03-17T08:55:10.125Z,7895
2019-03-17T08:58:37.995Z,7907
2019-03-17T09:02:05.846Z,7699
2019-03-17T09:05:33.726Z,6689
2019-03-17T09:09:01.833Z,5692
2019-03-17T09:12:29.810Z,4635
2019-03-17T09:15:57.726Z,5263
2019-03-17T09:19:26.622Z,4127
2019-03-17T09:22:54.548Z,3472
2019-03-17T09:26:22.480Z,3627
2019-03-17T09:29:50.365Z,5874
2019-03-17T09:33:18.304Z,8310
2019-03-17T09:36:46.180Z,3566
2019-03-17T09:40:14.305Z,4215
2019-03-17T09:43:43.292Z,2621
2019-03-17T09:47:11.157Z,1097
2019-03-17T09:50:39.048Z,1476
2019-03-17T09:54:06.914Z,3544
2019-03-17T09:57:34.773Z,2952
2019-03-17T10:01:02.653Z,3011
2019-03-17T10:04:30.544Z,3980
2019-03-17T10:07:58.431Z,2689
2019-03-17T10:11:26.293Z,4980
2019-03-17T10:14:54.194Z,4497
2019-03-17T10:18:23.074Z,3407
2019-03-17T10:21:50.918Z,2900
2019-03-17T10:25:18.788Z,3083
2019-03-17T10:28:46.664Z,4465
2019-03-17T10:32:14.518Z,4286
2019-03-17T10:35:42.427Z,4876
2019-03-17T10:39:13.270Z,3710
2019-03-17T10:42:41.139Z,4218
2019-03-17T10:46:09.024Z,5292
2019-03-17T10:49:36.914Z,6211
2019-03-17T10:53:04.785Z,7383
2019-03-17T10:56:32.663Z,5316
2019-03-17T11:00:00.570Z,6277
2019-03-17T11:03:28.402Z,8470
2019-03-17T11:06:56.269Z,11955
2019-03-17T11:10:24.140Z,8513
2019-03-17T11:13:53.004Z,9547
2019-03-17T11:17:20.893Z,10094
2019-03-17T11:20:48.774Z,7287
2019-03-17T11:24:23.686Z,6955
2019-03-17T11:27:51.610Z,8582
2019-03-17T11:31:19.464Z,7224
2019-03-17T11:34:47.343Z,7555
2019-03-17T11:38:16.077Z,7942
2019-03-17T11:41:45.625Z,7521
2019-03-17T11:45:13.517Z,5871
2019-03-17T11:48:41.422Z,6056
2019-03-17T11:52:09.318Z,5733
2019-03-17T11:55:37.226Z,5799
2019-03-17T11:59:05.078Z,5243
2019-03-17T12:02:32.945Z,5287
2019-03-17T12:06:00.809Z,6821
2019-03-17T12:09:30.645Z,4975
2019-03-17T12:12:58.539Z,6092
2019-03-17T12:16:26.493Z,5391
2019-03-17T12:19:55.201Z,5050
2019-03-17T12:23:23.067Z,4801
2019-03-17T12:26:50.933Z,4102
2019-03-17T12:30:18.791Z,2101
2019-03-17T12:33:46.688Z,1774
2019-03-17T12:37:14.564Z,1349
2019-03-17T12:40:42.427Z,2276
2019-03-17T12:44:10.292Z,3360
2019-03-17T12:47:39.183Z,3828
2019-03-17T12:51:07.042Z,3370
2019-03-17T12:54:35.005Z,2842
2019-03-17T12:58:02.875Z,2059
2019-03-17T13:01:30.724Z,4065
2019-03-17T13:04:58.618Z,3887
2019-03-17T13:08:26.501Z,1654
2019-03-17T13:11:54.353Z,2040
2019-03-17T13:15:22.259Z,6321
2019-03-17T13:18:50.120Z,7846
2019-03-17T13:22:17.969Z,8117
2019-03-17T13:25:45.834Z,7943
2019-03-17T13:29:13.702Z,7230
2019-03-17T13:32:41.588Z,11605
2019-03-17T13:36:09.442Z,26944
2019-03-17T13:39:37.373Z,9243
2019-03-17T13:43:05.236Z,24592
2019-03-17T13:46:33.090Z,11151
2019-03-17T13:50:00.953Z,10588
2019-03-17T13:53:28.813Z,29992
2019-03-17T13:56:56.676Z,20216
2019-03-17T14:00:24.580Z,8771
2019-03-17T14:03:54.766Z,14183
2019-03-17T14:07:22.303Z,13109
2019-03-17T14:10:50.160Z,15028
2019-03-17T14:14:18.029Z,9679
2019-03-17T14:17:45.875Z,16331
2019-03-17T14:21:13.769Z,12786
2019-03-17T14:24:41.631Z,10610
2019-03-17T14:28:09.486Z,20088
2019-03-17T14:31:39.333Z,10413
2019-03-17T14:35:07.212Z,9435
2019-03-17T14:38:36.149Z,21304
2019-03-17T14:42:04.060Z,9878
2019-03-17T14:45:32.004Z,9303
2019-03-17T14:48:59.860Z,7983
2019-03-17T14:52:27.799Z,8150
2019-03-17T14:55:55.667Z,6378
2019-03-17T14:59:23.537Z,6980
2019-03-17T15:02:51.411Z,7569
2019-03-17T15:06:19.273Z,37040
2019-03-17T15:09:47.128Z,29416
2019-03-17T15:13:14.997Z,10390
2019-03-17T15:16:42.857Z,6352
2019-03-17T15:20:10.753Z,8256
2019-03-17T15:23:38.630Z,6114
2019-03-17T15:27:06.551Z,9849
2019-03-17T15:30:34.416Z,8042
2019-03-17T15:34:02.272Z,39440
2019-03-17T15:37:30.145Z,4469
2019-03-17T15:40:58.050Z,36976
2019-03-17T15:44:26.888Z,33312
2019-03-17T15:47:54.760Z,4851
2019-03-17T15:51:23.619Z,3241
2019-03-17T15:54:52.459Z,3063
2019-03-17T15:58:20.327Z,2445
2019-03-17T16:01:48.195Z,2066
2019-03-17T16:05:17.048Z,1893
2019-03-17T16:08:44.963Z,1638
2019-03-17T16:12:12.836Z,1530
2019-03-17T16:15:42.668Z,1503
2019-03-17T16:19:10.537Z,1490
2019-03-17T16:22:38.402Z,1222
2019-03-17T16:26:06.267Z,1064
2019-03-17T16:29:34.144Z,952
2019-03-17T16:33:02.022Z,858
2019-03-17T16:36:29.883Z,935
2019-03-17T16:39:59.475Z,1244
2019-03-17T16:43:27.341Z,1074
2019-03-17T16:46:55.210Z,1017
2019-03-17T16:50:23.071Z,923
2019-03-17T16:53:50.933Z,828
2019-03-17T16:57:18.920Z,684
2019-03-17T17:00:47.764Z,496
2019-03-17T17:04:16.151Z,325
2019-03-17T17:07:44.016Z,231
2019-03-17T17:11:11.886Z,152
2019-03-17T17:14:39.745Z,88
2019-03-17T17:18:07.619Z,91
2019-03-17T17:21:35.465Z,56
2019-03-17T17:25:04.274Z,35
2019-03-17T17:28:32.189Z,21
2019-03-17T17:32:00.718Z,13
2019-03-17T17:35:37.861Z,8
2019-03-17T17:39:06.717Z,5
2019-03-17T17:42:34.603Z,4
2019-03-17T17:46:02.467Z,2
2019-03-17T17:49:30.362Z,1
2019-03-17T17:52:58.236Z,1
2019-03-17T17:56:26.126Z,0
2019-03-17T17:59:55.002Z,0
2019-03-17T18:03:22.882Z,0
2019-03-17T18:06:50.734Z,0
2019-03-17T18:10:18.645Z,0
2019-03-17T18:13:46.511Z,0
2019-03-17T18:17:14.534Z,0
2019-03-17T18:20:42.416Z,0
2019-03-17T18:24:10.288Z,0
2019-03-17T18:27:38.182Z,0
2019-03-17T18:31:06.067Z,0
2019-03-17T18:34:33.969Z,0
2019-03-17T18:38:01.857Z,0
2019-03-17T18:41:30.526Z,0
2019-03-17T18:44:59.384Z,0
2019-03-17T18:48:27.259Z,0
2019-03-17T18:51:55.178Z,0
2019-03-17T18:55:23.048Z,0
2019-03-17T18:58:50.943Z,0
2019-03-17T19:02:18.802Z,0
2019-03-17T19:05:46.676Z,0
2019-03-17T19:09:14.546Z,0
2019-03-17T19:12:46.295Z,0
2019-03-17T19:16:14.288Z,0
2019-03-17T19:19:42.182Z,0
2019-03-17T19:23:10.067Z,0
2019-03-17T19:26:37.956Z,0
2019-03-17T19:30:05.884Z,0
2019-03-17T19:33:36.174Z,0
2019-03-17T19:37:02.871Z,0
2019-03-17T19:40:31.758Z,0
2019-03-17T19:43:59.667Z,0
2019-03-17T19:47:27.529Z,0
2019-03-17T19:50:55.434Z,0
2019-03-17T19:54:24.274Z,0
2019-03-17T19:57:52.187Z,0
2019-03-17T20:01:20.083Z,0
2019-03-17T20:04:47.949Z,0
2019-03-17T20:08:15.820Z,0
2019-03-17T20:11:43.679Z,0
2019-03-17T20:15:11.570Z,0
2019-03-17T20:18:41.617Z,0
2019-03-17T20:22:09.301Z,0
2019-03-17T20:25:37.221Z,0
2019-03-17T20:29:05.146Z,0
2019-03-17T20:32:33.676Z,0
2019-03-17T20:36:02.514Z,0
2019-03-17T20:39:30.404Z,0
2019-03-17T20:42:59.262Z,0
2019-03-17T20:46:27.127Z,0
2019-03-17T20:49:55.007Z,0
2019-03-17T20:53:22.965Z,0
2019-03-17T20:56:50.767Z,0
2019-03-17T21:00:19.659Z,0
2019-03-17T21:03:48.626Z,0
2019-03-17T21:07:16.392Z,0
2019-03-17T21:10:44.359Z,0
2019-03-17T21:14:14.391Z,0
2019-03-17T21:17:42.242Z,0
2019-03-17T21:21:10.110Z,0
2019-03-17T21:24:37.979Z,0
2019-03-17T21:28:05.904Z,0
2019-03-17T21:31:33.764Z,0
2019-03-17T21:35:01.630Z,0
2019-03-17T21:38:29.476Z,0
2019-03-17T21:41:57.346Z,0
2019-03-17T21:45:27.401Z,0
2019-03-17T21:48:55.053Z,0
2019-03-17T21:52:22.925Z,0
2019-03-17T21:55:50.813Z,0
2019-03-17T21:59:21.636Z,0
2019-03-17T22:02:49.513Z,0
2019-03-17T22:06:19.356Z,0
2019-03-17T22:09:48.199Z,0
2019-03-17T22:13:16.079Z,0
2019-03-17T22:16:43.957Z,0
2019-03-17T22:20:11.818Z,0
2019-03-17T22:23:40.654Z,0
2019-03-17T22:27:08.526Z,0
2019-03-17T22:30:36.392Z,0
2019-03-17T22:34:04.242Z,0
2019-03-17T22:37:33.091Z,0
2019-03-17T22:41:00.966Z,0
2019-03-17T22:44:29.819Z,0
2019-03-17T22:47:57.685Z,0
2019-03-17T22:51:25.542Z,0
2019-03-17T22:54:53.389Z,0
2019-03-17T22:58:21.255Z,0
